sensor_id;sensor_type;location;lat;lon;timestamp;temperature;humidity
18218;DHT22;9234;49.344;11.120;2023-04-03T00:02:16;4.20;99.90
18218;DHT22;9234;49.344;11.120;2023-04-03T00:04:45;4.20;99.90
18218;DHT22;9234;49.344;11.120;2023-04-03T00:07:14;4.20;99.90
18218;DHT22;9234;49.344;11.120;2023-04-03T00:09:43;4.20;99.90
18218;DHT22;9234;49.344;11.120;2023-04-03T00:12:11;4.20;99.90
18218;DHT22;9234;49.344;11.120;2023-04-03T00:14:39;4.20;99.90
18218;DHT22;9234;49.344;11.120;2023-04-03T00:17:07;4.20;99.90
18218;DHT22;9234;49.344;11.120;2023-04-03T00:19:36;4.20;99.90
18218;DHT22;9234;49.344;11.120;2023-04-03T00:22:04;4.20;99.90
18218;DHT22;9234;49.344;11.120;2023-04-03T00:24:34;4.10;99.90
18218;DHT22;9234;49.344;11.120;2023-04-03T00:27:04;4.10;99.90
18218;DHT22;9234;49.344;11.120;2023-04-03T00:29:32;4.10;99.90
18218;DHT22;9234;49.344;11.120;2023-04-03T00:32:01;4.10;99.90
18218;DHT22;9234;49.344;11.120;2023-04-03T00:34:29;4.10;99.90
18218;DHT22;9234;49.344;11.120;2023-04-03T00:36:58;4.10;99.90
18218;DHT22;9234;49.344;11.120;2023-04-03T00:39:26;4.00;99.90
18218;DHT22;9234;49.344;11.120;2023-04-03T00:41:56;4.00;99.90
18218;DHT22;9234;49.344;11.120;2023-04-03T00:47:45;4.00;99.90
18218;DHT22;9234;49.344;11.120;2023-04-03T00:50:13;3.90;99.90
18218;DHT22;9234;49.344;11.120;2023-04-03T00:52:42;3.90;99.90
18218;DHT22;9234;49.344;11.120;2023-04-03T00:55:13;3.90;99.90
18218;DHT22;9234;49.344;11.120;2023-04-03T00:57:44;3.90;99.90
18218;DHT22;9234;49.344;11.120;2023-04-03T01:00:17;3.90;99.90
18218;DHT22;9234;49.344;11.120;2023-04-03T01:02:49;3.90;99.90
18218;DHT22;9234;49.344;11.120;2023-04-03T01:05:19;3.80;99.90
18218;DHT22;9234;49.344;11.120;2023-04-03T01:07:50;3.80;99.90
18218;DHT22;9234;49.344;11.120;2023-04-03T01:10:20;3.80;99.90
18218;DHT22;9234;49.344;11.120;2023-04-03T01:12:51;3.80;99.90
18218;DHT22;9234;49.344;11.120;2023-04-03T01:15:23;3.80;99.90
18218;DHT22;9234;49.344;11.120;2023-04-03T01:17:54;3.70;99.90
18218;DHT22;9234;49.344;11.120;2023-04-03T01:23:47;3.70;99.90
18218;DHT22;9234;49.344;11.120;2023-04-03T01:26:22;3.70;99.90
18218;DHT22;9234;49.344;11.120;2023-04-03T01:28:55;3.70;99.90
18218;DHT22;9234;49.344;11.120;2023-04-03T01:31:26;3.70;99.90
18218;DHT22;9234;49.344;11.120;2023-04-03T01:33:58;3.70;99.90
18218;DHT22;9234;49.344;11.120;2023-04-03T01:36:30;3.70;99.90
18218;DHT22;9234;49.344;11.120;2023-04-03T01:39:00;3.60;99.90
18218;DHT22;9234;49.344;11.120;2023-04-03T01:41:29;3.60;99.90
18218;DHT22;9234;49.344;11.120;2023-04-03T01:44:07;3.60;99.90
18218;DHT22;9234;49.344;11.120;2023-04-03T01:46:35;3.60;99.90
18218;DHT22;9234;49.344;11.120;2023-04-03T01:49:05;3.60;99.90
18218;DHT22;9234;49.344;11.120;2023-04-03T01:51:34;3.60;99.90
18218;DHT22;9234;49.344;11.120;2023-04-03T01:54:02;3.60;99.90
18218;DHT22;9234;49.344;11.120;2023-04-03T01:56:30;3.60;99.90
18218;DHT22;9234;49.344;11.120;2023-04-03T01:58:59;3.60;99.90
18218;DHT22;9234;49.344;11.120;2023-04-03T02:01:27;3.50;99.90
18218;DHT22;9234;49.344;11.120;2023-04-03T02:03:56;3.50;99.90
18218;DHT22;9234;49.344;11.120;2023-04-03T02:06:25;3.50;99.90
18218;DHT22;9234;49.344;11.120;2023-04-03T02:08:54;3.50;99.90
18218;DHT22;9234;49.344;11.120;2023-04-03T02:11:22;3.50;99.90
18218;DHT22;9234;49.344;11.120;2023-04-03T02:13:50;3.50;99.90
18218;DHT22;9234;49.344;11.120;2023-04-03T02:16:19;3.40;99.90
18218;DHT22;9234;49.344;11.120;2023-04-03T02:18:48;3.40;99.90
18218;DHT22;9234;49.344;11.120;2023-04-03T02:21:17;3.40;99.90
18218;DHT22;9234;49.344;11.120;2023-04-03T02:23:48;3.40;99.90
18218;DHT22;9234;49.344;11.120;2023-04-03T02:26:18;3.40;99.90
18218;DHT22;9234;49.344;11.120;2023-04-03T02:28:46;3.40;99.90
18218;DHT22;9234;49.344;11.120;2023-04-03T02:31:15;3.30;99.90
18218;DHT22;9234;49.344;11.120;2023-04-03T02:33:45;3.30;99.90
18218;DHT22;9234;49.344;11.120;2023-04-03T02:36:15;3.30;99.90
18218;DHT22;9234;49.344;11.120;2023-04-03T02:38:50;3.30;99.90
18218;DHT22;9234;49.344;11.120;2023-04-03T02:41:18;3.30;99.90
18218;DHT22;9234;49.344;11.120;2023-04-03T02:43:48;3.20;99.90
18218;DHT22;9234;49.344;11.120;2023-04-03T02:46:17;3.20;99.90
18218;DHT22;9234;49.344;11.120;2023-04-03T02:48:45;3.20;99.90
18218;DHT22;9234;49.344;11.120;2023-04-03T02:51:13;3.10;99.90
18218;DHT22;9234;49.344;11.120;2023-04-03T02:53:42;3.10;99.90
18218;DHT22;9234;49.344;11.120;2023-04-03T02:56:17;3.10;99.90
18218;DHT22;9234;49.344;11.120;2023-04-03T02:58:47;3.10;99.90
18218;DHT22;9234;49.344;11.120;2023-04-03T03:01:16;3.10;99.90
18218;DHT22;9234;49.344;11.120;2023-04-03T03:03:45;3.10;99.90
18218;DHT22;9234;49.344;11.120;2023-04-03T03:06:14;3.10;99.90
18218;DHT22;9234;49.344;11.120;2023-04-03T03:08:44;3.10;99.90
18218;DHT22;9234;49.344;11.120;2023-04-03T03:11:12;3.10;99.90
18218;DHT22;9234;49.344;11.120;2023-04-03T03:13:42;3.00;99.90
18218;DHT22;9234;49.344;11.120;2023-04-03T03:16:11;3.00;99.90
18218;DHT22;9234;49.344;11.120;2023-04-03T03:18:39;3.00;99.90
18218;DHT22;9234;49.344;11.120;2023-04-03T03:21:09;3.00;99.90
18218;DHT22;9234;49.344;11.120;2023-04-03T03:23:38;3.00;99.90
18218;DHT22;9234;49.344;11.120;2023-04-03T03:26:08;3.00;99.90
18218;DHT22;9234;49.344;11.120;2023-04-03T03:28:39;2.90;99.90
18218;DHT22;9234;49.344;11.120;2023-04-03T03:31:09;2.90;99.90
18218;DHT22;9234;49.344;11.120;2023-04-03T03:33:39;2.90;99.90
18218;DHT22;9234;49.344;11.120;2023-04-03T03:36:08;2.80;99.90
18218;DHT22;9234;49.344;11.120;2023-04-03T03:38:36;2.80;99.90
18218;DHT22;9234;49.344;11.120;2023-04-03T03:41:05;2.80;99.90
18218;DHT22;9234;49.344;11.120;2023-04-03T03:43:34;2.80;99.90
18218;DHT22;9234;49.344;11.120;2023-04-03T03:46:04;2.80;99.90
18218;DHT22;9234;49.344;11.120;2023-04-03T03:48:34;2.70;99.90
18218;DHT22;9234;49.344;11.120;2023-04-03T03:51:02;2.70;99.90
18218;DHT22;9234;49.344;11.120;2023-04-03T03:53:35;2.70;99.90
18218;DHT22;9234;49.344;11.120;2023-04-03T03:56:06;2.70;99.90
18218;DHT22;9234;49.344;11.120;2023-04-03T03:58:37;2.70;99.90
18218;DHT22;9234;49.344;11.120;2023-04-03T04:01:07;2.70;99.90
18218;DHT22;9234;49.344;11.120;2023-04-03T04:03:42;2.70;99.90
18218;DHT22;9234;49.344;11.120;2023-04-03T04:06:15;2.70;99.90
18218;DHT22;9234;49.344;11.120;2023-04-03T04:08:44;2.70;99.90
18218;DHT22;9234;49.344;11.120;2023-04-03T04:11:14;2.70;99.90
18218;DHT22;9234;49.344;11.120;2023-04-03T04:13:44;2.70;99.90
18218;DHT22;9234;49.344;11.120;2023-04-03T04:16:14;2.70;99.90
18218;DHT22;9234;49.344;11.120;2023-04-03T04:18:44;2.70;99.90
18218;DHT22;9234;49.344;11.120;2023-04-03T04:21:12;2.70;99.90
18218;DHT22;9234;49.344;11.120;2023-04-03T04:23:41;2.70;99.90
18218;DHT22;9234;49.344;11.120;2023-04-03T04:26:09;2.70;99.90
18218;DHT22;9234;49.344;11.120;2023-04-03T04:28:39;2.70;99.90
18218;DHT22;9234;49.344;11.120;2023-04-03T04:31:07;2.70;99.90
18218;DHT22;9234;49.344;11.120;2023-04-03T04:33:36;2.70;99.90
18218;DHT22;9234;49.344;11.120;2023-04-03T04:36:07;2.70;99.90
18218;DHT22;9234;49.344;11.120;2023-04-03T04:38:37;2.60;99.90
18218;DHT22;9234;49.344;11.120;2023-04-03T04:41:06;2.70;99.90
18218;DHT22;9234;49.344;11.120;2023-04-03T04:43:34;2.60;99.90
18218;DHT22;9234;49.344;11.120;2023-04-03T04:46:05;2.70;99.90
18218;DHT22;9234;49.344;11.120;2023-04-03T04:48:39;2.70;99.90
18218;DHT22;9234;49.344;11.120;2023-04-03T04:51:10;2.70;99.90
18218;DHT22;9234;49.344;11.120;2023-04-03T04:53:39;2.60;99.90
18218;DHT22;9234;49.344;11.120;2023-04-03T04:56:10;2.60;99.90
18218;DHT22;9234;49.344;11.120;2023-04-03T04:58:41;2.60;99.90
18218;DHT22;9234;49.344;11.120;2023-04-03T05:01:10;2.60;99.90
18218;DHT22;9234;49.344;11.120;2023-04-03T05:03:47;2.60;99.90
18218;DHT22;9234;49.344;11.120;2023-04-03T05:06:18;2.50;99.90
18218;DHT22;9234;49.344;11.120;2023-04-03T05:08:47;2.60;99.90
18218;DHT22;9234;49.344;11.120;2023-04-03T05:11:16;2.60;99.90
18218;DHT22;9234;49.344;11.120;2023-04-03T05:13:46;2.60;99.90
18218;DHT22;9234;49.344;11.120;2023-04-03T05:16:14;2.50;99.90
18218;DHT22;9234;49.344;11.120;2023-04-03T05:18:42;2.60;99.90
18218;DHT22;9234;49.344;11.120;2023-04-03T05:21:18;2.60;99.90
18218;DHT22;9234;49.344;11.120;2023-04-03T05:23:47;2.60;99.90
18218;DHT22;9234;49.344;11.120;2023-04-03T05:26:15;2.60;99.90
18218;DHT22;9234;49.344;11.120;2023-04-03T05:28:46;2.60;99.90
18218;DHT22;9234;49.344;11.120;2023-04-03T05:31:15;2.70;99.90
18218;DHT22;9234;49.344;11.120;2023-04-03T05:33:43;2.70;99.90
18218;DHT22;9234;49.344;11.120;2023-04-03T05:36:17;2.80;99.90
18218;DHT22;9234;49.344;11.120;2023-04-03T05:38:50;2.80;99.90
18218;DHT22;9234;49.344;11.120;2023-04-03T05:41:21;2.80;99.90
18218;DHT22;9234;49.344;11.120;2023-04-03T05:43:50;2.90;99.90
18218;DHT22;9234;49.344;11.120;2023-04-03T05:46:20;2.90;99.90
18218;DHT22;9234;49.344;11.120;2023-04-03T05:48:53;3.00;99.90
18218;DHT22;9234;49.344;11.120;2023-04-03T05:51:33;3.00;99.90
18218;DHT22;9234;49.344;11.120;2023-04-03T05:54:15;3.10;99.90
18218;DHT22;9234;49.344;11.120;2023-04-03T05:56:47;3.10;99.90
18218;DHT22;9234;49.344;11.120;2023-04-03T05:59:15;3.20;99.90
18218;DHT22;9234;49.344;11.120;2023-04-03T06:01:44;3.20;99.90
18218;DHT22;9234;49.344;11.120;2023-04-03T06:04:13;3.20;99.90
18218;DHT22;9234;49.344;11.120;2023-04-03T06:06:48;3.20;99.90
18218;DHT22;9234;49.344;11.120;2023-04-03T06:09:18;3.30;99.90
18218;DHT22;9234;49.344;11.120;2023-04-03T06:11:48;3.30;99.90
18218;DHT22;9234;49.344;11.120;2023-04-03T06:14:17;3.40;99.90
18218;DHT22;9234;49.344;11.120;2023-04-03T06:16:45;3.50;99.90
18218;DHT22;9234;49.344;11.120;2023-04-03T06:19:14;3.50;99.90
18218;DHT22;9234;49.344;11.120;2023-04-03T06:21:48;3.50;99.90
18218;DHT22;9234;49.344;11.120;2023-04-03T06:24:17;3.60;99.90
18218;DHT22;9234;49.344;11.120;2023-04-03T06:26:46;3.60;99.90
18218;DHT22;9234;49.344;11.120;2023-04-03T06:29:15;3.70;99.90
18218;DHT22;9234;49.344;11.120;2023-04-03T06:31:45;3.70;99.90
18218;DHT22;9234;49.344;11.120;2023-04-03T06:34:14;3.80;99.90
18218;DHT22;9234;49.344;11.120;2023-04-03T06:36:44;3.90;99.90
18218;DHT22;9234;49.344;11.120;2023-04-03T06:39:16;3.90;99.90
18218;DHT22;9234;49.344;11.120;2023-04-03T06:41:47;4.00;99.90
18218;DHT22;9234;49.344;11.120;2023-04-03T06:44:16;4.00;99.90
18218;DHT22;9234;49.344;11.120;2023-04-03T06:46:45;4.10;99.90
18218;DHT22;9234;49.344;11.120;2023-04-03T06:49:14;4.10;99.90
18218;DHT22;9234;49.344;11.120;2023-04-03T06:51:42;4.10;99.90
18218;DHT22;9234;49.344;11.120;2023-04-03T06:54:11;4.20;99.90
18218;DHT22;9234;49.344;11.120;2023-04-03T06:56:40;4.30;99.90
18218;DHT22;9234;49.344;11.120;2023-04-03T06:59:09;4.30;99.90
18218;DHT22;9234;49.344;11.120;2023-04-03T07:01:40;4.30;99.90
18218;DHT22;9234;49.344;11.120;2023-04-03T07:04:08;4.30;99.90
18218;DHT22;9234;49.344;11.120;2023-04-03T07:06:39;4.40;99.90
18218;DHT22;9234;49.344;11.120;2023-04-03T07:09:08;4.40;99.90
18218;DHT22;9234;49.344;11.120;2023-04-03T07:11:37;4.50;99.90
18218;DHT22;9234;49.344;11.120;2023-04-03T07:14:07;4.60;99.90
18218;DHT22;9234;49.344;11.120;2023-04-03T07:16:36;4.70;99.90
18218;DHT22;9234;49.344;11.120;2023-04-03T07:19:08;4.80;99.90
18218;DHT22;9234;49.344;11.120;2023-04-03T07:21:36;4.90;99.90
18218;DHT22;9234;49.344;11.120;2023-04-03T07:24:05;5.00;99.90
18218;DHT22;9234;49.344;11.120;2023-04-03T07:26:39;5.00;99.90
18218;DHT22;9234;49.344;11.120;2023-04-03T07:29:09;5.10;99.90
18218;DHT22;9234;49.344;11.120;2023-04-03T07:31:38;5.20;99.90
18218;DHT22;9234;49.344;11.120;2023-04-03T07:34:08;5.30;99.90
18218;DHT22;9234;49.344;11.120;2023-04-03T07:36:37;5.40;99.90
18218;DHT22;9234;49.344;11.120;2023-04-03T07:39:05;5.50;99.90
18218;DHT22;9234;49.344;11.120;2023-04-03T07:41:34;5.50;99.90
18218;DHT22;9234;49.344;11.120;2023-04-03T07:44:03;5.60;99.90
18218;DHT22;9234;49.344;11.120;2023-04-03T07:46:33;5.60;99.90
18218;DHT22;9234;49.344;11.120;2023-04-03T07:49:02;5.60;99.90
18218;DHT22;9234;49.344;11.120;2023-04-03T07:51:30;5.60;99.90
18218;DHT22;9234;49.344;11.120;2023-04-03T07:53:58;5.70;99.90
18218;DHT22;9234;49.344;11.120;2023-04-03T07:56:27;5.80;99.90
18218;DHT22;9234;49.344;11.120;2023-04-03T07:58:56;5.90;99.90
18218;DHT22;9234;49.344;11.120;2023-04-03T08:01:24;6.00;99.90
18218;DHT22;9234;49.344;11.120;2023-04-03T08:03:54;6.10;99.90
18218;DHT22;9234;49.344;11.120;2023-04-03T08:06:22;6.20;99.90
18218;DHT22;9234;49.344;11.120;2023-04-03T08:09:08;6.10;99.90
18218;DHT22;9234;49.344;11.120;2023-04-03T08:11:38;6.20;99.90
18218;DHT22;9234;49.344;11.120;2023-04-03T08:14:07;6.20;99.90
18218;DHT22;9234;49.344;11.120;2023-04-03T08:16:42;6.30;99.90
18218;DHT22;9234;49.344;11.120;2023-04-03T08:19:13;6.30;99.90
18218;DHT22;9234;49.344;11.120;2023-04-03T08:21:53;6.40;99.90
18218;DHT22;9234;49.344;11.120;2023-04-03T08:24:22;6.50;99.90
18218;DHT22;9234;49.344;11.120;2023-04-03T08:26:50;6.60;99.90
18218;DHT22;9234;49.344;11.120;2023-04-03T08:29:18;6.70;99.90
18218;DHT22;9234;49.344;11.120;2023-04-03T08:31:48;6.70;99.90
18218;DHT22;9234;49.344;11.120;2023-04-03T08:34:19;6.80;99.90
18218;DHT22;9234;49.344;11.120;2023-04-03T08:36:47;6.90;99.90
18218;DHT22;9234;49.344;11.120;2023-04-03T08:39:17;7.00;99.90
18218;DHT22;9234;49.344;11.120;2023-04-03T08:41:46;7.10;99.90
18218;DHT22;9234;49.344;11.120;2023-04-03T08:44:20;7.10;99.90
18218;DHT22;9234;49.344;11.120;2023-04-03T08:47:00;7.20;99.90
18218;DHT22;9234;49.344;11.120;2023-04-03T08:49:39;7.20;99.90
18218;DHT22;9234;49.344;11.120;2023-04-03T08:52:17;7.30;99.90
18218;DHT22;9234;49.344;11.120;2023-04-03T08:54:51;7.40;99.90
18218;DHT22;9234;49.344;11.120;2023-04-03T08:57:28;7.60;99.90
18218;DHT22;9234;49.344;11.120;2023-04-03T09:00:15;7.70;99.90
18218;DHT22;9234;49.344;11.120;2023-04-03T09:02:47;7.70;99.90
18218;DHT22;9234;49.344;11.120;2023-04-03T09:05:20;7.60;99.90
18218;DHT22;9234;49.344;11.120;2023-04-03T09:07:57;7.50;99.90
18218;DHT22;9234;49.344;11.120;2023-04-03T09:10:29;7.40;99.90
18218;DHT22;9234;49.344;11.120;2023-04-03T09:13:06;7.30;99.90
18218;DHT22;9234;49.344;11.120;2023-04-03T09:15:47;7.40;99.90
18218;DHT22;9234;49.344;11.120;2023-04-03T09:18:20;7.50;99.90
18218;DHT22;9234;49.344;11.120;2023-04-03T09:21:01;7.70;99.90
18218;DHT22;9234;49.344;11.120;2023-04-03T09:23:42;7.70;98.10
18218;DHT22;9234;49.344;11.120;2023-04-03T09:26:16;7.80;98.20
18218;DHT22;9234;49.344;11.120;2023-04-03T09:28:47;7.90;97.10
18218;DHT22;9234;49.344;11.120;2023-04-03T09:31:20;7.90;97.60
18218;DHT22;9234;49.344;11.120;2023-04-03T09:33:53;7.90;97.20
18218;DHT22;9234;49.344;11.120;2023-04-03T09:36:43;7.90;96.70
18218;DHT22;9234;49.344;11.120;2023-04-03T09:39:15;7.90;96.50
18218;DHT22;9234;49.344;11.120;2023-04-03T09:41:57;7.90;95.50
18218;DHT22;9234;49.344;11.120;2023-04-03T09:44:30;7.90;94.60
18218;DHT22;9234;49.344;11.120;2023-04-03T09:47:18;7.90;94.30
18218;DHT22;9234;49.344;11.120;2023-04-03T09:49:47;7.90;95.40
18218;DHT22;9234;49.344;11.120;2023-04-03T09:52:23;7.90;95.50
18218;DHT22;9234;49.344;11.120;2023-04-03T09:54:53;7.90;94.90
18218;DHT22;9234;49.344;11.120;2023-04-03T09:57:21;7.90;95.40
18218;DHT22;9234;49.344;11.120;2023-04-03T09:59:57;7.90;95.50
18218;DHT22;9234;49.344;11.120;2023-04-03T10:02:36;8.00;95.60
18218;DHT22;9234;49.344;11.120;2023-04-03T10:05:25;8.00;95.80
18218;DHT22;9234;49.344;11.120;2023-04-03T10:08:20;8.00;96.30
18218;DHT22;9234;49.344;11.120;2023-04-03T10:11:14;8.10;95.80
18218;DHT22;9234;49.344;11.120;2023-04-03T10:13:56;8.10;94.90
18218;DHT22;9234;49.344;11.120;2023-04-03T10:16:32;8.00;93.90
18218;DHT22;9234;49.344;11.120;2023-04-03T10:19:31;7.90;93.90
18218;DHT22;9234;49.344;11.120;2023-04-03T10:22:04;7.70;93.20
18218;DHT22;9234;49.344;11.120;2023-04-03T10:24:51;7.60;94.00
18218;DHT22;9234;49.344;11.120;2023-04-03T10:27:33;7.50;92.80
18218;DHT22;9234;49.344;11.120;2023-04-03T10:30:26;7.50;93.40
18218;DHT22;9234;49.344;11.120;2023-04-03T10:36:06;7.60;94.30
18218;DHT22;9234;49.344;11.120;2023-04-03T10:38:47;7.90;95.10
18218;DHT22;9234;49.344;11.120;2023-04-03T10:41:33;8.40;94.80
18218;DHT22;9234;49.344;11.120;2023-04-03T10:44:15;8.90;94.20
18218;DHT22;9234;49.344;11.120;2023-04-03T10:47:01;9.30;93.40
18218;DHT22;9234;49.344;11.120;2023-04-03T10:49:41;9.40;91.30
18218;DHT22;9234;49.344;11.120;2023-04-03T10:52:30;9.50;92.40
18218;DHT22;9234;49.344;11.120;2023-04-03T10:55:16;9.60;90.60
18218;DHT22;9234;49.344;11.120;2023-04-03T10:57:55;9.60;91.30
18218;DHT22;9234;49.344;11.120;2023-04-03T11:00:33;9.70;89.30
18218;DHT22;9234;49.344;11.120;2023-04-03T11:03:11;9.60;87.60
18218;DHT22;9234;49.344;11.120;2023-04-03T11:05:44;9.50;87.40
18218;DHT22;9234;49.344;11.120;2023-04-03T11:08:25;9.40;88.40
18218;DHT22;9234;49.344;11.120;2023-04-03T11:11:00;9.20;90.00
18218;DHT22;9234;49.344;11.120;2023-04-03T11:13:34;9.10;89.60
18218;DHT22;9234;49.344;11.120;2023-04-03T11:16:06;9.00;89.40
18218;DHT22;9234;49.344;11.120;2023-04-03T11:18:39;9.00;90.00
18218;DHT22;9234;49.344;11.120;2023-04-03T11:21:16;9.00;89.00
18218;DHT22;9234;49.344;11.120;2023-04-03T11:23:49;9.00;89.20
18218;DHT22;9234;49.344;11.120;2023-04-03T11:26:22;9.10;89.70
18218;DHT22;9234;49.344;11.120;2023-04-03T11:28:59;9.20;90.20
18218;DHT22;9234;49.344;11.120;2023-04-03T11:31:44;9.30;86.60
18218;DHT22;9234;49.344;11.120;2023-04-03T11:34:33;9.30;85.20
18218;DHT22;9234;49.344;11.120;2023-04-03T11:37:13;9.40;85.10
18218;DHT22;9234;49.344;11.120;2023-04-03T11:39:53;9.40;86.60
18218;DHT22;9234;49.344;11.120;2023-04-03T11:42:35;9.70;86.80
18218;DHT22;9234;49.344;11.120;2023-04-03T11:45:50;10.00;86.10
18218;DHT22;9234;49.344;11.120;2023-04-03T11:48:44;10.50;86.10
18218;DHT22;9234;49.344;11.120;2023-04-03T11:51:42;11.00;82.10
18218;DHT22;9234;49.344;11.120;2023-04-03T11:54:36;11.00;77.20
18218;DHT22;9234;49.344;11.120;2023-04-03T11:57:43;10.80;77.00
18218;DHT22;9234;49.344;11.120;2023-04-03T12:00:51;10.50;77.60
18218;DHT22;9234;49.344;11.120;2023-04-03T12:09:59;11.50;80.30
18218;DHT22;9234;49.344;11.120;2023-04-03T12:12:35;12.30;81.70
18218;DHT22;9234;49.344;11.120;2023-04-03T12:15:24;12.60;72.20
18218;DHT22;9234;49.344;11.120;2023-04-03T12:24:44;13.40;67.90
18218;DHT22;9234;49.344;11.120;2023-04-03T12:27:34;13.10;65.30
18218;DHT22;9234;49.344;11.120;2023-04-03T12:30:21;12.80;64.80
18218;DHT22;9234;49.344;11.120;2023-04-03T12:33:10;12.40;65.70
18218;DHT22;9234;49.344;11.120;2023-04-03T12:36:01;11.80;64.60
18218;DHT22;9234;49.344;11.120;2023-04-03T12:38:58;11.40;65.00
18218;DHT22;9234;49.344;11.120;2023-04-03T12:41:38;11.20;66.80
18218;DHT22;9234;49.344;11.120;2023-04-03T12:44:31;11.20;69.40
18218;DHT22;9234;49.344;11.120;2023-04-03T12:47:22;11.60;71.20
18218;DHT22;9234;49.344;11.120;2023-04-03T12:49:52;12.50;71.30
18218;DHT22;9234;49.344;11.120;2023-04-03T12:52:36;13.30;70.30
18218;DHT22;9234;49.344;11.120;2023-04-03T12:55:17;13.50;59.60
18218;DHT22;9234;49.344;11.120;2023-04-03T12:57:47;13.50;61.10
18218;DHT22;9234;49.344;11.120;2023-04-03T13:00:30;13.30;59.30
18218;DHT22;9234;49.344;11.120;2023-04-03T13:03:03;13.10;58.30
18218;DHT22;9234;49.344;11.120;2023-04-03T13:05:32;13.30;59.90
18218;DHT22;9234;49.344;11.120;2023-04-03T13:08:08;13.60;57.40
18218;DHT22;9234;49.344;11.120;2023-04-03T13:10:53;13.90;60.10
18218;DHT22;9234;49.344;11.120;2023-04-03T13:13:24;14.10;56.60
18218;DHT22;9234;49.344;11.120;2023-04-03T13:15:54;14.10;56.90
18218;DHT22;9234;49.344;11.120;2023-04-03T13:18:25;13.90;58.60
18218;DHT22;9234;49.344;11.120;2023-04-03T13:20:59;13.70;58.70
18218;DHT22;9234;49.344;11.120;2023-04-03T13:23:35;13.20;58.90
18218;DHT22;9234;49.344;11.120;2023-04-03T13:26:06;12.90;60.00
18218;DHT22;9234;49.344;11.120;2023-04-03T13:28:36;12.70;60.50
18218;DHT22;9234;49.344;11.120;2023-04-03T13:31:14;12.70;58.40
18218;DHT22;9234;49.344;11.120;2023-04-03T13:33:57;13.00;59.30
18218;DHT22;9234;49.344;11.120;2023-04-03T13:36:31;13.60;59.90
18218;DHT22;9234;49.344;11.120;2023-04-03T13:39:22;14.30;58.60
18218;DHT22;9234;49.344;11.120;2023-04-03T13:41:55;14.80;56.30
18218;DHT22;9234;49.344;11.120;2023-04-03T13:44:29;15.50;57.80
18218;DHT22;9234;49.344;11.120;2023-04-03T13:47:01;16.10;56.90
18218;DHT22;9234;49.344;11.120;2023-04-03T13:49:45;16.60;54.50
18218;DHT22;9234;49.344;11.120;2023-04-03T13:52:28;16.80;52.20
18218;DHT22;9234;49.344;11.120;2023-04-03T13:55:14;16.40;50.70
18218;DHT22;9234;49.344;11.120;2023-04-03T13:58:20;15.90;51.10
18218;DHT22;9234;49.344;11.120;2023-04-03T14:00:52;15.30;52.00
18218;DHT22;9234;49.344;11.120;2023-04-03T14:03:24;14.80;53.00
18218;DHT22;9234;49.344;11.120;2023-04-03T14:05:54;14.60;52.00
18218;DHT22;9234;49.344;11.120;2023-04-03T14:08:23;14.90;53.90
18218;DHT22;9234;49.344;11.120;2023-04-03T14:11:13;15.50;54.30
18218;DHT22;9234;49.344;11.120;2023-04-03T14:13:43;15.70;52.80
18218;DHT22;9234;49.344;11.120;2023-04-03T14:16:14;15.50;52.40
18218;DHT22;9234;49.344;11.120;2023-04-03T14:18:46;15.00;53.70
18218;DHT22;9234;49.344;11.120;2023-04-03T14:21:17;14.50;53.70
18218;DHT22;9234;49.344;11.120;2023-04-03T14:23:48;13.90;54.40
18218;DHT22;9234;49.344;11.120;2023-04-03T14:26:19;13.60;56.30
18218;DHT22;9234;49.344;11.120;2023-04-03T14:28:52;13.60;56.00
18218;DHT22;9234;49.344;11.120;2023-04-03T14:31:22;13.60;57.30
18218;DHT22;9234;49.344;11.120;2023-04-03T14:33:51;14.00;58.10
18218;DHT22;9234;49.344;11.120;2023-04-03T14:36:22;14.50;56.30
18218;DHT22;9234;49.344;11.120;2023-04-03T14:38:54;14.80;53.90
18218;DHT22;9234;49.344;11.120;2023-04-03T14:41:25;14.80;53.70
18218;DHT22;9234;49.344;11.120;2023-04-03T14:43:57;14.50;53.30
18218;DHT22;9234;49.344;11.120;2023-04-03T14:46:28;14.30;54.10
18218;DHT22;9234;49.344;11.120;2023-04-03T14:49:21;13.90;54.50
18218;DHT22;9234;49.344;11.120;2023-04-03T14:51:51;13.30;55.10
18218;DHT22;9234;49.344;11.120;2023-04-03T14:54:23;12.90;56.60
18218;DHT22;9234;49.344;11.120;2023-04-03T14:56:58;12.50;57.60
18218;DHT22;9234;49.344;11.120;2023-04-03T14:59:29;12.60;59.70
18218;DHT22;9234;49.344;11.120;2023-04-03T15:01:58;13.00;59.30
18218;DHT22;9234;49.344;11.120;2023-04-03T15:04:27;13.70;57.80
18218;DHT22;9234;49.344;11.120;2023-04-03T15:06:55;13.70;56.40
18218;DHT22;9234;49.344;11.120;2023-04-03T15:09:26;13.60;55.60
18218;DHT22;9234;49.344;11.120;2023-04-03T15:11:57;13.00;54.80
18218;DHT22;9234;49.344;11.120;2023-04-03T15:14:26;12.60;56.80
18218;DHT22;9234;49.344;11.120;2023-04-03T15:17:03;12.20;57.40
18218;DHT22;9234;49.344;11.120;2023-04-03T15:19:36;12.10;59.20
18218;DHT22;9234;49.344;11.120;2023-04-03T15:22:06;12.50;59.90
18218;DHT22;9234;49.344;11.120;2023-04-03T15:24:37;12.80;58.10
18218;DHT22;9234;49.344;11.120;2023-04-03T15:27:07;12.90;57.70
18218;DHT22;9234;49.344;11.120;2023-04-03T15:29:36;13.20;57.00
18218;DHT22;9234;49.344;11.120;2023-04-03T15:32:05;13.30;56.70
18218;DHT22;9234;49.344;11.120;2023-04-03T15:34:34;13.30;56.00
18218;DHT22;9234;49.344;11.120;2023-04-03T15:37:03;13.00;55.80
18218;DHT22;9234;49.344;11.120;2023-04-03T15:39:31;12.60;56.30
18218;DHT22;9234;49.344;11.120;2023-04-03T15:42:00;12.30;56.90
18218;DHT22;9234;49.344;11.120;2023-04-03T15:44:34;12.10;57.20
18218;DHT22;9234;49.344;11.120;2023-04-03T15:47:04;11.70;57.80
18218;DHT22;9234;49.344;11.120;2023-04-03T15:49:33;11.40;58.90
18218;DHT22;9234;49.344;11.120;2023-04-03T15:52:02;11.10;59.80
18218;DHT22;9234;49.344;11.120;2023-04-03T15:54:31;10.70;61.40
18218;DHT22;9234;49.344;11.120;2023-04-03T15:57:00;10.50;62.00
18218;DHT22;9234;49.344;11.120;2023-04-03T15:59:28;10.30;63.00
18218;DHT22;9234;49.344;11.120;2023-04-03T16:01:59;10.10;63.10
18218;DHT22;9234;49.344;11.120;2023-04-03T16:04:32;9.90;63.80
18218;DHT22;9234;49.344;11.120;2023-04-03T16:07:02;9.70;64.00
18218;DHT22;9234;49.344;11.120;2023-04-03T16:09:32;9.60;65.30
18218;DHT22;9234;49.344;11.120;2023-04-03T16:12:02;9.40;65.40
18218;DHT22;9234;49.344;11.120;2023-04-03T16:14:31;9.30;66.00
18218;DHT22;9234;49.344;11.120;2023-04-03T16:17:01;9.10;67.60
18218;DHT22;9234;49.344;11.120;2023-04-03T16:19:30;9.00;68.00
18218;DHT22;9234;49.344;11.120;2023-04-03T16:21:58;8.90;68.70
18218;DHT22;9234;49.344;11.120;2023-04-03T16:24:27;8.90;68.90
18218;DHT22;9234;49.344;11.120;2023-04-03T16:26:55;8.90;69.90
18218;DHT22;9234;49.344;11.120;2023-04-03T16:29:24;9.40;71.40
18218;DHT22;9234;49.344;11.120;2023-04-03T16:31:52;10.00;70.70
18218;DHT22;9234;49.344;11.120;2023-04-03T16:34:23;10.60;68.60
18218;DHT22;9234;49.344;11.120;2023-04-03T16:36:53;11.00;64.60
18218;DHT22;9234;49.344;11.120;2023-04-03T16:39:22;11.50;65.10
18218;DHT22;9234;49.344;11.120;2023-04-03T16:41:50;11.80;64.00
18218;DHT22;9234;49.344;11.120;2023-04-03T16:44:18;12.20;64.60